createdAt,value
2022-08-04T00:00:59.501Z,48.58
2022-08-04T00:03:41.173Z,48.61
2022-08-04T00:06:16.922Z,48.64
2022-08-04T00:08:50.571Z,48.74
2022-08-04T00:11:22.483Z,48.63
2022-08-04T00:14:04.992Z,48.71
2022-08-04T00:16:37.796Z,48.94
2022-08-04T00:19:11.798Z,48.81
2022-08-04T00:21:42.010Z,49.09
2022-08-04T00:24:14.458Z,48.95
2022-08-04T00:26:41.899Z,48.85
2022-08-04T00:29:08.552Z,48.92
2022-08-04T00:31:56.475Z,48.82
2022-08-04T00:34:27.242Z,48.98
2022-08-04T00:36:54.449Z,48.69
2022-08-04T00:39:21.388Z,48.81
2022-08-04T00:42:24.461Z,49.24
2022-08-04T00:45:09.609Z,49.03
2022-08-04T00:47:50.886Z,49.21
2022-08-04T00:50:44.078Z,48.94
2022-08-04T00:53:49.961Z,48.96
2022-08-04T00:56:19.756Z,48.95
2022-08-04T00:58:52.205Z,48.96
2022-08-04T01:01:37.598Z,49.06
2022-08-04T01:04:11.742Z,48.89
2022-08-04T01:06:58.674Z,49.00
2022-08-04T01:09:45.423Z,48.80
2022-08-04T01:12:33.647Z,49.05
2022-08-04T01:15:06.810Z,49.18
2022-08-04T01:17:36.449Z,49.33
2022-08-04T01:20:08.979Z,49.33
2022-08-04T01:23:10.121Z,49.40
2022-08-04T01:25:54.150Z,49.55
2022-08-04T01:28:30.984Z,49.55
2022-08-04T01:31:01.298Z,49.32
2022-08-04T01:34:03.257Z,49.27
2022-08-04T01:36:24.890Z,49.46
2022-08-04T01:38:54.140Z,49.36
2022-08-04T01:41:32.223Z,49.40
2022-08-04T01:44:04.301Z,49.50
2022-08-04T01:46:33.869Z,49.59
2022-08-04T01:49:02.686Z,49.66
2022-08-04T01:51:34.986Z,49.53
2022-08-04T01:54:09.220Z,49.72
2022-08-04T01:56:36.747Z,49.70
2022-08-04T01:59:03.874Z,49.81
2022-08-04T02:01:36.519Z,49.88
2022-08-04T02:04:21.504Z,49.88
2022-08-04T02:06:59.253Z,49.80
2022-08-04T02:09:28.786Z,49.92
2022-08-04T02:12:03.798Z,49.70
2022-08-04T02:15:13.798Z,49.94
2022-08-04T02:17:43.391Z,50.05
2022-08-04T02:20:23.162Z,49.91
2022-08-04T02:22:54.990Z,50.13
2022-08-04T02:25:26.872Z,50.15
2022-08-04T02:28:28.162Z,50.31
2022-08-04T02:30:57.289Z,49.87
2022-08-04T02:33:38.690Z,50.32
2022-08-04T02:36:09.273Z,50.13
2022-08-04T02:39:00.120Z,50.10
2022-08-04T02:41:28.917Z,50.08
2022-08-04T02:44:02.283Z,50.31
2022-08-04T02:46:29.898Z,50.39
2022-08-04T02:48:57.315Z,50.31
2022-08-04T02:51:28.833Z,50.34
2022-08-04T02:54:01.689Z,50.29
2022-08-04T02:56:31.530Z,50.27
2022-08-04T02:59:03.778Z,50.48
2022-08-04T03:01:31.572Z,50.42
2022-08-04T03:04:24.689Z,50.77
2022-08-04T03:07:22.975Z,50.44
2022-08-04T03:10:10.632Z,50.59
2022-08-04T03:13:01.831Z,50.60
2022-08-04T03:15:46.446Z,50.58
2022-08-04T03:18:31.839Z,50.61
2022-08-04T03:21:36.918Z,50.71
2022-08-04T03:24:26.628Z,50.80
2022-08-04T03:27:10.874Z,50.81
2022-08-04T03:29:56.246Z,50.59
2022-08-04T03:32:41.575Z,50.72
2022-08-04T03:35:32.821Z,50.83
2022-08-04T03:38:17.528Z,50.83
2022-08-04T03:41:57.391Z,50.80
2022-08-04T03:44:38.950Z,50.84
2022-08-04T03:47:29.949Z,50.85
2022-08-04T03:50:12.997Z,50.91
2022-08-04T03:53:20.389Z,50.88
2022-08-04T03:55:54.722Z,50.83
2022-08-04T03:58:40.542Z,51.20
2022-08-04T04:01:13.262Z,51.30
2022-08-04T04:04:18.102Z,51.46
2022-08-04T04:07:35.690Z,51.27
2022-08-04T04:10:26.558Z,50.92
2022-08-04T04:13:33.005Z,50.92
2022-08-04T04:16:26.451Z,50.99
2022-08-04T04:19:20.523Z,50.99
2022-08-04T04:22:11.692Z,51.15
2022-08-04T04:25:03.451Z,50.99
2022-08-04T04:28:44.456Z,51.04
2022-08-04T04:31:27.924Z,51.07
2022-08-04T04:34:16.946Z,50.69
2022-08-04T04:37:17.712Z,50.74
2022-08-04T04:40:06.161Z,50.81
2022-08-04T04:42:35.425Z,50.79
2022-08-04T04:45:21.030Z,50.71
2022-08-04T04:48:08.257Z,50.95
2022-08-04T04:50:46.330Z,51.12
2022-08-04T04:53:45.103Z,51.12
2022-08-04T04:56:39.528Z,50.91
2022-08-04T04:59:11.431Z,51.19
2022-08-04T05:02:00.866Z,51.19
2022-08-04T05:05:04.907Z,51.38
2022-08-04T05:07:40.231Z,51.16
2022-08-04T05:10:33.626Z,51.12
2022-08-04T05:14:36.438Z,51.28
2022-08-04T05:16:35.076Z,51.52
2022-08-04T05:19:23.313Z,51.73
2022-08-04T05:22:04.277Z,51.56
2022-08-04T05:24:37.634Z,51.53
2022-08-04T05:27:12.090Z,51.84
2022-08-04T05:29:47.103Z,51.81
2022-08-04T05:32:16.820Z,51.91
2022-08-04T05:34:54.087Z,51.81
2022-08-04T05:37:22.630Z,51.97
2022-08-04T05:40:04.486Z,52.39
2022-08-04T05:42:34.869Z,52.25
2022-08-04T05:45:03.153Z,51.84
2022-08-04T05:47:32.017Z,51.75
2022-08-04T05:50:02.021Z,51.65
2022-08-04T05:52:31.572Z,51.57
2022-08-04T05:54:59.573Z,51.23
2022-08-04T05:57:26.828Z,51.50
2022-08-04T05:59:58.785Z,51.72
2022-08-04T06:02:27.918Z,51.83
2022-08-04T06:04:56.489Z,51.38
2022-08-04T06:07:23.364Z,51.47
2022-08-04T06:09:51.069Z,51.43
2022-08-04T06:13:00.869Z,51.44
2022-08-04T06:15:28.386Z,51.44
2022-08-04T06:19:40.149Z,51.38
2022-08-04T06:20:53.092Z,51.33
2022-08-04T06:23:26.065Z,51.24
2022-08-04T06:25:57.080Z,51.25
2022-08-04T06:28:24.732Z,51.00
2022-08-04T06:30:53.076Z,50.83
2022-08-04T06:33:54.485Z,50.64
2022-08-04T06:36:20.770Z,50.47
2022-08-04T06:38:47.827Z,50.49
2022-08-04T06:41:25.765Z,50.36
2022-08-04T06:43:53.951Z,50.09
2022-08-04T06:46:21.453Z,50.22
2022-08-04T06:48:50.790Z,50.27
2022-08-04T06:51:28.658Z,50.21
2022-08-04T06:54:04.805Z,49.95
2022-08-04T06:56:35.041Z,49.58
2022-08-04T06:59:03.577Z,49.13
2022-08-04T07:01:31.111Z,48.88
2022-08-04T07:04:01.114Z,48.60
2022-08-04T07:06:27.819Z,48.18
2022-08-04T07:08:56.386Z,47.96
2022-08-04T07:11:24.851Z,47.25
2022-08-04T07:13:53.786Z,46.81
2022-08-04T07:16:22.010Z,46.38
2022-08-04T07:18:57.667Z,46.25
2022-08-04T07:21:24.877Z,45.78
2022-08-04T07:23:53.950Z,45.42
2022-08-04T07:26:26.410Z,45.08
2022-08-04T07:28:53.006Z,45.20
2022-08-04T07:31:34.593Z,44.81
2022-08-04T07:34:21.083Z,44.75
2022-08-04T07:36:53.002Z,44.53
2022-08-04T07:39:29.636Z,44.52
2022-08-04T07:41:59.043Z,44.22
2022-08-04T07:44:27.918Z,44.27
2022-08-04T07:46:55.099Z,44.09
2022-08-04T07:49:56.571Z,43.89
2022-08-04T07:52:08.788Z,43.90
2022-08-04T07:54:40.008Z,43.62
2022-08-04T07:57:06.700Z,43.60
2022-08-04T07:59:35.202Z,43.55
2022-08-04T08:02:02.563Z,43.63
2022-08-04T08:04:30.063Z,43.54
2022-08-04T08:06:57.716Z,43.34
2022-08-04T08:09:24.568Z,43.33
2022-08-04T08:12:35.441Z,42.94
2022-08-04T08:14:41.385Z,43.37
2022-08-04T08:17:08.166Z,43.10
2022-08-04T08:19:35.653Z,42.47
2022-08-04T08:22:02.883Z,42.18
2022-08-04T08:24:32.509Z,41.96
2022-08-04T08:27:00.296Z,41.75
2022-08-04T08:29:29.599Z,41.61
2022-08-04T08:32:01.482Z,41.66
2022-08-04T08:34:33.016Z,41.26
2022-08-04T08:37:09.701Z,41.19
2022-08-04T08:39:43.018Z,40.82
2022-08-04T08:42:34.234Z,40.67
2022-08-04T08:45:26.247Z,40.76
2022-08-04T08:48:31.358Z,40.33
2022-08-04T08:51:47.683Z,39.41
2022-08-04T08:54:35.784Z,39.44
2022-08-04T08:57:17.310Z,39.47
2022-08-04T09:00:07.464Z,39.12
2022-08-04T09:02:44.896Z,39.22
2022-08-04T09:05:36.521Z,39.06
2022-08-04T09:08:08.878Z,38.82
2022-08-04T09:11:05.894Z,38.81
2022-08-04T09:13:41.578Z,38.29
2022-08-04T09:16:19.153Z,38.20
2022-08-04T09:19:04.461Z,38.00
2022-08-04T09:21:41.958Z,37.89
2022-08-04T09:24:36.449Z,37.98
2022-08-04T09:27:09.842Z,38.45
2022-08-04T09:29:39.324Z,38.39
2022-08-04T09:32:41.353Z,38.50
2022-08-04T09:35:33.790Z,38.33
2022-08-04T09:38:19.177Z,38.19
2022-08-04T09:40:53.449Z,37.91
2022-08-04T09:44:43.103Z,37.95
2022-08-04T09:47:10.590Z,37.83
2022-08-04T09:49:43.722Z,37.92
2022-08-04T09:52:25.397Z,37.45
2022-08-04T09:55:20.837Z,37.20
2022-08-04T09:57:58.190Z,37.61
2022-08-04T10:00:40.435Z,37.50
2022-08-04T10:03:19.669Z,37.35
2022-08-04T10:05:55.823Z,37.13
2022-08-04T10:08:57.162Z,37.24
2022-08-04T10:11:55.579Z,37.00
2022-08-04T10:14:48.003Z,36.87
2022-08-04T10:17:35.883Z,36.97
2022-08-04T10:20:44.296Z,36.95
2022-08-04T10:23:55.082Z,37.43
2022-08-04T10:26:26.191Z,37.58
2022-08-04T10:29:02.492Z,37.12
2022-08-04T10:31:35.519Z,37.15
2022-08-04T10:34:29.600Z,37.69
2022-08-04T10:37:04.367Z,37.66
2022-08-04T10:40:06.956Z,37.92
2022-08-04T10:42:37.422Z,38.29
2022-08-04T10:45:19.769Z,38.97
2022-08-04T10:48:02.481Z,39.60
2022-08-04T10:50:29.977Z,39.84
2022-08-04T10:53:03.563Z,40.00
2022-08-04T10:56:06.450Z,40.76
2022-08-04T10:58:59.910Z,41.34
2022-08-04T11:01:50.742Z,41.82
2022-08-04T11:04:37.715Z,42.75
2022-08-04T11:07:04.867Z,43.19
2022-08-04T11:09:33.944Z,43.66
2022-08-04T11:12:12.810Z,44.48
2022-08-04T11:14:53.280Z,45.33
2022-08-04T11:17:26.236Z,45.27
2022-08-04T11:23:13.994Z,46.66
2022-08-04T11:25:52.971Z,46.85
2022-08-04T11:28:30.549Z,47.12
2022-08-04T11:31:05.691Z,47.38
2022-08-04T11:34:16.046Z,47.37
2022-08-04T11:37:14.014Z,47.50
2022-08-04T11:39:47.303Z,47.36
2022-08-04T11:42:22.019Z,47.56
2022-08-04T11:45:04.848Z,47.80
2022-08-04T11:47:54.427Z,47.85
2022-08-04T11:50:27.493Z,47.56
2022-08-04T11:52:57.828Z,47.63
2022-08-04T11:55:27.087Z,47.73
2022-08-04T11:57:54.881Z,47.88
2022-08-04T12:00:22.712Z,47.76
2022-08-04T12:03:18.704Z,47.37
2022-08-04T12:06:15.660Z,46.85
2022-08-04T12:09:22.270Z,46.76
2022-08-04T12:12:13.761Z,46.63
2022-08-04T12:14:55.214Z,46.13
2022-08-04T12:17:53.448Z,45.40
2022-08-04T12:20:32.194Z,44.98
2022-08-04T12:23:17.488Z,44.62
2022-08-04T12:25:47.753Z,44.20
2022-08-04T12:28:23.383Z,43.67
2022-08-04T12:31:01.050Z,43.19
2022-08-04T12:34:04.423Z,42.84
2022-08-04T12:36:37.324Z,43.01
2022-08-04T12:39:15.783Z,42.73
2022-08-04T12:42:02.327Z,42.61
2022-08-04T12:44:37.710Z,41.88
2022-08-04T12:47:26.592Z,42.27
2022-08-04T12:50:02.300Z,42.29
2022-08-04T12:53:04.349Z,42.20
2022-08-04T12:55:35.131Z,42.46
2022-08-04T12:58:04.177Z,42.53
2022-08-04T13:00:40.808Z,42.67
2022-08-04T13:03:16.934Z,42.43
2022-08-04T13:05:45.085Z,42.67
2022-08-04T13:08:12.911Z,42.66
2022-08-04T13:10:47.824Z,42.56
2022-08-04T13:13:29.008Z,43.09
2022-08-04T13:16:00.493Z,42.93
2022-08-04T13:18:32.045Z,43.35
2022-08-04T13:21:20.108Z,43.12
2022-08-04T13:24:10.560Z,43.19
2022-08-04T13:26:55.257Z,43.34
2022-08-04T13:30:00.574Z,43.50
2022-08-04T13:32:22.229Z,43.65
2022-08-04T13:34:52.782Z,43.83
2022-08-04T13:37:26.752Z,43.72
2022-08-04T13:39:56.404Z,43.53
2022-08-04T13:42:26.513Z,43.17
2022-08-04T13:44:59.651Z,42.75
2022-08-04T13:47:34.036Z,42.63
2022-08-04T13:50:22.506Z,42.58
2022-08-04T13:52:59.354Z,42.58
2022-08-04T13:55:35.160Z,42.20
2022-08-04T13:58:09.240Z,42.61
2022-08-04T14:00:44.108Z,42.56
2022-08-04T14:03:24.140Z,42.37
2022-08-04T14:06:19.147Z,42.12
2022-08-04T14:08:51.701Z,42.12
2022-08-04T14:12:08.881Z,41.52
2022-08-04T14:14:33.801Z,41.33
2022-08-04T14:17:19.965Z,41.28
2022-08-04T14:19:47.705Z,40.95
2022-08-04T14:22:26.565Z,40.35
2022-08-04T14:25:15.811Z,39.74
2022-08-04T14:27:43.179Z,39.93
2022-08-04T14:30:32.170Z,39.84
2022-08-04T14:33:59.622Z,39.58
2022-08-04T14:36:04.182Z,39.75
2022-08-04T14:38:57.370Z,39.91
2022-08-04T14:41:29.569Z,39.89
2022-08-04T14:44:02.375Z,39.88
2022-08-04T14:46:37.015Z,40.27
2022-08-04T14:49:03.748Z,40.10
2022-08-04T14:51:55.256Z,39.92
2022-08-04T14:54:30.572Z,39.94
2022-08-04T14:57:08.670Z,40.02
2022-08-04T14:59:59.464Z,39.68
2022-08-04T15:02:30.041Z,39.71
2022-08-04T15:04:57.785Z,39.72
2022-08-04T15:07:25.478Z,39.80
2022-08-04T15:09:52.466Z,39.38
2022-08-04T15:12:20.273Z,39.27
2022-08-04T15:14:48.634Z,39.07
2022-08-04T15:17:30.220Z,38.93
2022-08-04T15:19:57.262Z,38.94
2022-08-04T15:22:24.079Z,39.03
2022-08-04T15:24:56.033Z,38.49
2022-08-04T15:27:32.507Z,38.46
2022-08-04T15:30:08.323Z,38.39
2022-08-04T15:32:38.421Z,38.77
2022-08-04T15:35:13.585Z,38.35
2022-08-04T15:37:49.485Z,38.98
2022-08-04T15:40:33.311Z,38.22
2022-08-04T15:43:29.941Z,38.46
2022-08-04T15:46:30.759Z,38.75
2022-08-04T15:48:47.341Z,38.46
2022-08-04T15:51:31.794Z,38.33
2022-08-04T15:54:02.528Z,38.43
2022-08-04T15:56:30.819Z,37.69
2022-08-04T15:58:57.651Z,37.88
2022-08-04T16:01:24.834Z,37.40
2022-08-04T16:04:25.130Z,37.03
2022-08-04T16:07:04.055Z,37.47
2022-08-04T16:09:45.139Z,37.28
2022-08-04T16:12:54.749Z,37.53
2022-08-04T16:15:56.132Z,37.14
2022-08-04T16:18:30.272Z,37.19
2022-08-04T16:21:03.903Z,37.34
2022-08-04T16:23:56.828Z,37.44
2022-08-04T16:26:45.259Z,37.53
2022-08-04T16:29:24.819Z,37.71
2022-08-04T16:32:12.636Z,37.44
2022-08-04T16:34:54.665Z,37.49
2022-08-04T16:37:29.069Z,37.49
2022-08-04T16:40:37.625Z,37.84
2022-08-04T16:43:16.752Z,37.91
2022-08-04T16:45:55.498Z,37.91
2022-08-04T16:48:29.116Z,37.85
2022-08-04T16:51:03.233Z,37.90
2022-08-04T16:54:02.870Z,37.67
2022-08-04T16:56:36.164Z,37.65
2022-08-04T16:59:11.485Z,37.87
2022-08-04T17:01:49.989Z,37.95
2022-08-04T17:04:36.561Z,37.68
2022-08-04T17:07:06.289Z,37.43
2022-08-04T17:09:33.219Z,37.40
2022-08-04T17:12:02.235Z,37.78
2022-08-04T17:14:31.348Z,37.57
2022-08-04T17:17:01.141Z,37.70
2022-08-04T17:19:27.872Z,37.87
2022-08-04T17:22:03.040Z,37.51
2022-08-04T17:24:35.084Z,37.50
2022-08-04T17:27:01.877Z,38.11
2022-08-04T17:29:42.884Z,37.61
2022-08-04T17:32:20.966Z,38.01
2022-08-04T17:35:03.586Z,37.91
2022-08-04T17:37:39.439Z,37.99
2022-08-04T17:40:11.272Z,37.87
2022-08-04T17:42:41.682Z,37.64
2022-08-04T17:48:00.772Z,37.93
2022-08-04T17:50:35.885Z,37.83
2022-08-04T17:53:11.713Z,37.66
2022-08-04T17:55:47.150Z,37.83
2022-08-04T17:58:26.851Z,37.95
2022-08-04T18:03:52.809Z,38.03
2022-08-04T18:06:23.391Z,37.98
2022-08-04T18:08:58.188Z,37.76
2022-08-04T18:11:29.785Z,37.72
2022-08-04T18:14:09.801Z,37.53
2022-08-04T18:16:45.295Z,38.18
2022-08-04T18:19:19.038Z,38.19
2022-08-04T18:21:59.585Z,37.96
2022-08-04T18:24:35.292Z,38.05
2022-08-04T18:27:22.324Z,38.41
2022-08-04T18:30:33.347Z,38.21
2022-08-04T18:32:56.426Z,38.52
2022-08-04T18:36:31.285Z,38.25
2022-08-04T18:38:22.662Z,38.12
2022-08-04T18:40:52.800Z,38.41
2022-08-04T18:43:28.547Z,38.19
2022-08-04T18:45:59.558Z,38.42
2022-08-04T18:48:35.912Z,38.40
2022-08-04T18:51:10.801Z,38.48
2022-08-04T18:56:36.723Z,38.55
2022-08-04T18:59:10.251Z,38.65
2022-08-04T19:02:16.352Z,38.46
2022-08-04T19:04:33.098Z,38.59
2022-08-04T19:07:24.479Z,38.58
2022-08-04T19:09:51.933Z,38.75
2022-08-04T19:12:26.675Z,38.79
2022-08-04T19:14:57.995Z,38.81
2022-08-04T19:17:52.525Z,38.97
2022-08-04T19:20:16.049Z,38.65
2022-08-04T19:24:28.648Z,38.94
2022-08-04T19:25:58.618Z,38.90
2022-08-04T19:28:33.944Z,39.07
2022-08-04T19:31:01.782Z,39.13
2022-08-04T19:33:30.438Z,39.39
2022-08-04T19:36:20.860Z,39.41
2022-08-04T19:38:58.147Z,39.43
2022-08-04T19:41:26.499Z,39.45
2022-08-04T19:43:54.470Z,39.37
2022-08-04T19:46:21.525Z,39.38
2022-08-04T19:48:59.021Z,39.40
2022-08-04T19:51:27.957Z,39.63
2022-08-04T19:54:02.446Z,39.62
2022-08-04T19:56:39.855Z,39.70
2022-08-04T19:59:10.914Z,39.87
2022-08-04T20:01:44.184Z,39.92
2022-08-04T20:04:12.833Z,39.80
2022-08-04T20:06:39.735Z,40.22
2022-08-04T20:09:24.459Z,40.07
2022-08-04T20:11:54.155Z,39.96
2022-08-04T20:14:32.525Z,39.99
2022-08-04T20:17:10.299Z,39.94
2022-08-04T20:19:38.061Z,40.21
2022-08-04T20:22:05.120Z,40.43
2022-08-04T20:24:46.921Z,40.37
2022-08-04T20:27:18.731Z,40.27
2022-08-04T20:29:49.890Z,40.62
2022-08-04T20:32:22.201Z,40.67
2022-08-04T20:34:53.307Z,40.79
2022-08-04T20:37:23.395Z,40.88
2022-08-04T20:39:56.094Z,40.86
2022-08-04T20:42:27.141Z,41.18
2022-08-04T20:45:02.593Z,41.09
2022-08-04T20:47:35.069Z,41.03
2022-08-04T20:50:09.480Z,41.32
2022-08-04T20:52:37.209Z,41.36
2022-08-04T20:55:05.565Z,41.65
2022-08-04T20:57:48.615Z,41.75
2022-08-04T21:00:17.645Z,42.25
2022-08-04T21:02:59.356Z,43.10
2022-08-04T21:05:26.697Z,43.66
2022-08-04T21:07:56.641Z,44.27
2022-08-04T21:10:27.043Z,44.63
2022-08-04T21:12:57.927Z,44.98
2022-08-04T21:15:26.293Z,45.51
2022-08-04T21:18:13.480Z,45.79
2022-08-04T21:20:42.858Z,46.16
2022-08-04T21:23:12.127Z,46.49
2022-08-04T21:25:42.781Z,46.68
2022-08-04T21:28:10.599Z,47.39
2022-08-04T21:30:54.592Z,47.59
2022-08-04T21:33:50.238Z,47.81
2022-08-04T21:36:16.102Z,47.90
2022-08-04T21:38:51.062Z,48.19
2022-08-04T21:41:20.383Z,48.45
2022-08-04T21:43:55.851Z,48.64
2022-08-04T21:46:22.668Z,48.94
2022-08-04T21:48:49.593Z,49.21
2022-08-04T21:51:21.772Z,49.82
2022-08-04T21:54:14.924Z,49.77
2022-08-04T21:56:51.570Z,50.15
2022-08-04T21:59:23.743Z,50.31
2022-08-04T22:01:57.916Z,50.59
2022-08-04T22:04:29.435Z,50.79
2022-08-04T22:06:56.135Z,51.12
2022-08-04T22:09:22.693Z,51.11
2022-08-04T22:11:51.791Z,51.20
2022-08-04T22:14:29.493Z,51.24
2022-08-04T22:17:02.624Z,51.27
2022-08-04T22:19:40.916Z,51.59
2022-08-04T22:22:25.217Z,51.71
2022-08-04T22:24:55.139Z,52.09
2022-08-04T22:27:43.868Z,52.35
2022-08-04T22:30:17.103Z,52.32
2022-08-04T22:33:03.469Z,52.59
2022-08-04T22:35:35.808Z,52.33
2022-08-04T22:38:24.233Z,52.44
2022-08-04T22:41:03.709Z,52.46
2022-08-04T22:43:34.645Z,52.96
2022-08-04T22:46:12.100Z,52.97
2022-08-04T22:48:39.882Z,53.10
2022-08-04T22:51:10.082Z,53.03
2022-08-04T22:53:41.949Z,53.45
2022-08-04T22:56:16.383Z,53.30
2022-08-04T22:59:03.099Z,53.36
2022-08-04T23:01:58.090Z,53.32
2022-08-04T23:04:16.874Z,53.57
2022-08-04T23:06:43.492Z,53.63
2022-08-04T23:09:15.911Z,53.70
2022-08-04T23:11:43.399Z,53.61
2022-08-04T23:14:12.493Z,53.86
2022-08-04T23:16:40.643Z,54.00
2022-08-04T23:19:12.197Z,53.88
2022-08-04T23:21:47.641Z,53.89
2022-08-04T23:24:30.404Z,53.91
2022-08-04T23:26:58.990Z,53.89
2022-08-04T23:29:25.493Z,54.11
2022-08-04T23:32:00.254Z,54.10
2022-08-04T23:34:31.419Z,54.65
2022-08-04T23:36:59.103Z,54.81
2022-08-04T23:39:26.215Z,54.75
2022-08-04T23:42:15.110Z,55.10
2022-08-04T23:44:48.614Z,55.03
2022-08-04T23:48:15.738Z,55.08
2022-08-04T23:50:01.763Z,55.08
2022-08-04T23:52:30.914Z,55.46
2022-08-04T23:55:01.104Z,55.38
2022-08-04T23:58:02.614Z,55.07
